This is the latest recevied weather packets stored in our database for station/object IK2YOU-3. If no packets are shown the sender has not sent any weather packets the latest 10 day(s).
| Time | Temp. | Humidity | Pressure | Rain* | Wind** | Luminosity | Snow |
|---|---|---|---|---|---|---|---|
| 1778180646 | 19.44° C | 64% | 1010.1 hPa | 0 mm | - | 0 W/m² | - |
| 1778180176 | 20° C | 63% | 1010 hPa | 0 mm | - | 0 W/m² | - |
| 1778179446 | 20° C | 62% | 1009.9 hPa | 0 mm | - | 0 W/m² | - |
| 1778178846 | 20.56° C | 61% | 1009.9 hPa | 0 mm | - | 0 W/m² | - |
| 1778178246 | 20.56° C | 59% | 1009.9 hPa | 0 mm | - | 5 W/m² | - |
| 1778177774 | 21.11° C | 57% | 1009.8 hPa | 0 mm | - | 10 W/m² | - |
| 1778177046 | 21.11° C | 56% | 1009.7 hPa | 0 mm | - | 14 W/m² | - |
| 1778176446 | 21.11° C | 54% | 1009.4 hPa | 0 mm | - | 18 W/m² | - |
| 1778175845 | 21.67° C | 53% | 1009.2 hPa | 0 mm | - | 21 W/m² | - |
| 1778175248 | 22.22° C | 49% | 1009.1 hPa | 0 mm | - | 25 W/m² | - |
| 1778174646 | 23.33° C | 46% | 1009.1 hPa | 0 mm | - | 29 W/m² | - |
| 1778174175 | 23.89° C | 45% | 1009.2 hPa | 0 mm | - | 34 W/m² | - |
| 1778173447 | 23.89° C | 46% | 1009.1 hPa | 0 mm | - | 43 W/m² | - |
| 1778172846 | 23.33° C | 47% | 1009.1 hPa | 0 mm | - | 46 W/m² | - |
| 1778172373 | 23.33° C | 47% | 1009.1 hPa | 0 mm | - | 118 W/m² | - |
| 1778171774 | 23.33° C | 47% | 1009.1 hPa | 0 mm | - | 125 W/m² | - |
| 1778171047 | 23.33° C | 48% | 1009.1 hPa | 0 mm | - | 136 W/m² | - |
| 1778170447 | 23.33° C | 48% | 1009 hPa | 0 mm | - | 159 W/m² | - |
| 1778169846 | 23.33° C | 49% | 1009 hPa | 0 mm | - | 173 W/m² | - |
| 1778169377 | 23.33° C | 46% | 1009.1 hPa | 0 mm | - | 219 W/m² | - |
| 1778168773 | 22.78° C | 51% | 1009 hPa | 0 mm | - | 203 W/m² | - |
| 1778168045 | 23.33° C | 51% | 1009.1 hPa | 0 mm | - | 229 W/m² | - |
| 1778167446 | 23.33° C | 53% | 1009.2 hPa | 0 mm | - | 263 W/m² | - |
| 1778166848 | 22.78° C | 52% | 1009.2 hPa | 0 mm | - | 349 W/m² | - |
| 1778166247 | 22.78° C | 53% | 1009.2 hPa | 0 mm | - | 327 W/m² | - |
* Rain latest hour (hover to see other rain measurements)
** Current wind speed in m/s (hover to see current wind gust speed)